sensor_id;sensor_type;location;lat;lon;timestamp;pressure;altitude;pressure_sealevel;temperature;humidity
52957;BME280;38819;42.692;23.342;2022-10-16T00:02:06;95934.75;;;11.16;71.63
52957;BME280;38819;42.692;23.342;2022-10-16T00:04:31;95940.94;;;11.22;71.34
52957;BME280;38819;42.692;23.342;2022-10-16T00:06:56;95945.56;;;11.21;71.24
52957;BME280;38819;42.692;23.342;2022-10-16T00:09:22;95939.88;;;11.23;71.03
52957;BME280;38819;42.692;23.342;2022-10-16T00:11:47;95947.50;;;11.05;71.94
52957;BME280;38819;42.692;23.342;2022-10-16T00:14:13;95941.00;;;11.11;71.45
52957;BME280;38819;42.692;23.342;2022-10-16T00:16:39;95948.28;;;11.16;71.16
52957;BME280;38819;42.692;23.342;2022-10-16T00:19:04;95950.72;;;11.18;70.83
52957;BME280;38819;42.692;23.342;2022-10-16T00:21:30;95951.22;;;11.20;70.69
52957;BME280;38819;42.692;23.342;2022-10-16T00:23:57;95952.06;;;11.15;70.92
52957;BME280;38819;42.692;23.342;2022-10-16T00:26:24;95948.84;;;11.13;70.86
52957;BME280;38819;42.692;23.342;2022-10-16T00:28:49;95959.69;;;11.03;71.01
52957;BME280;38819;42.692;23.342;2022-10-16T00:31:15;95956.13;;;11.07;70.86
52957;BME280;38819;42.692;23.342;2022-10-16T00:33:41;95958.03;;;11.07;70.75
52957;BME280;38819;42.692;23.342;2022-10-16T00:36:08;95971.03;;;11.05;70.77
52957;BME280;38819;42.692;23.342;2022-10-16T00:38:34;95974.56;;;11.00;70.81
52957;BME280;38819;42.692;23.342;2022-10-16T00:41:00;95977.53;;;10.99;71.08
52957;BME280;38819;42.692;23.342;2022-10-16T00:43:59;95964.06;;;10.88;71.48
52957;BME280;38819;42.692;23.342;2022-10-16T00:48:48;95951.03;;;11.01;70.87
52957;BME280;38819;42.692;23.342;2022-10-16T00:51:15;95956.78;;;10.84;71.52
52957;BME280;38819;42.692;23.342;2022-10-16T00:53:42;95955.19;;;10.72;71.95
52957;BME280;38819;42.692;23.342;2022-10-16T00:56:07;95954.94;;;10.69;72.13
52957;BME280;38819;42.692;23.342;2022-10-16T00:58:32;95956.06;;;10.63;72.10
52957;BME280;38819;42.692;23.342;2022-10-16T01:00:58;95967.94;;;10.51;72.51
52957;BME280;38819;42.692;23.342;2022-10-16T01:03:24;95963.88;;;10.59;72.23
52957;BME280;38819;42.692;23.342;2022-10-16T01:05:52;95969.84;;;10.56;72.33
52957;BME280;38819;42.692;23.342;2022-10-16T01:08:27;95980.63;;;10.61;71.80
52957;BME280;38819;42.692;23.342;2022-10-16T01:11:09;95973.38;;;10.46;72.42
52957;BME280;38819;42.692;23.342;2022-10-16T01:13:41;95971.50;;;10.36;72.92
52957;BME280;38819;42.692;23.342;2022-10-16T01:16:55;95978.75;;;10.31;72.96
52957;BME280;38819;42.692;23.342;2022-10-16T01:21:39;95967.16;;;10.41;72.45
52957;BME280;38819;42.692;23.342;2022-10-16T01:24:17;95963.91;;;10.38;72.21
52957;BME280;38819;42.692;23.342;2022-10-16T01:26:50;95958.50;;;10.38;72.32
52957;BME280;38819;42.692;23.342;2022-10-16T01:29:23;95950.41;;;10.38;72.23
52957;BME280;38819;42.692;23.342;2022-10-16T01:31:53;95956.06;;;10.47;72.08
52957;BME280;38819;42.692;23.342;2022-10-16T01:34:22;95964.47;;;10.35;72.27
52957;BME280;38819;42.692;23.342;2022-10-16T01:36:52;95969.59;;;10.16;72.94
52957;BME280;38819;42.692;23.342;2022-10-16T01:39:19;95958.53;;;10.13;73.07
52957;BME280;38819;42.692;23.342;2022-10-16T01:41:48;95953.66;;;10.20;73.07
52957;BME280;38819;42.692;23.342;2022-10-16T01:44:19;95960.41;;;10.17;73.09
52957;BME280;38819;42.692;23.342;2022-10-16T01:46:46;95961.75;;;10.10;73.31
52957;BME280;38819;42.692;23.342;2022-10-16T01:49:13;95970.13;;;10.03;73.38
52957;BME280;38819;42.692;23.342;2022-10-16T01:51:38;95971.19;;;10.02;73.74
52957;BME280;38819;42.692;23.342;2022-10-16T01:54:04;95975.53;;;10.03;73.31
52957;BME280;38819;42.692;23.342;2022-10-16T01:56:29;95969.59;;;9.91;73.91
52957;BME280;38819;42.692;23.342;2022-10-16T01:58:57;95977.69;;;9.96;73.66
52957;BME280;38819;42.692;23.342;2022-10-16T02:01:24;95982.84;;;9.92;73.91
52957;BME280;38819;42.692;23.342;2022-10-16T02:03:51;95979.31;;;9.92;73.99
52957;BME280;38819;42.692;23.342;2022-10-16T02:06:18;95985.53;;;9.97;73.77
52957;BME280;38819;42.692;23.342;2022-10-16T02:08:43;95983.91;;;9.96;73.73
52957;BME280;38819;42.692;23.342;2022-10-16T02:11:09;95990.09;;;9.97;73.90
52957;BME280;38819;42.692;23.342;2022-10-16T02:16:06;95991.47;;;10.05;73.32
52957;BME280;38819;42.692;23.342;2022-10-16T02:18:31;95987.41;;;10.02;73.08
52957;BME280;38819;42.692;23.342;2022-10-16T02:23:30;96000.34;;;10.05;72.76
52957;BME280;38819;42.692;23.342;2022-10-16T02:25:57;95996.06;;;10.04;72.63
52957;BME280;38819;42.692;23.342;2022-10-16T02:28:24;95995.22;;;9.98;72.65
52957;BME280;38819;42.692;23.342;2022-10-16T02:31:02;96002.53;;;9.98;72.54
52957;BME280;38819;42.692;23.342;2022-10-16T02:33:28;96011.16;;;10.00;72.69
52957;BME280;38819;42.692;23.342;2022-10-16T02:35:55;96004.41;;;9.92;72.51
52957;BME280;38819;42.692;23.342;2022-10-16T02:38:22;96003.31;;;9.93;72.72
52957;BME280;38819;42.692;23.342;2022-10-16T02:40:48;95998.19;;;9.92;72.13
52957;BME280;38819;42.692;23.342;2022-10-16T02:43:13;96010.34;;;9.84;72.50
52957;BME280;38819;42.692;23.342;2022-10-16T02:45:39;96004.66;;;9.80;72.56
52957;BME280;38819;42.692;23.342;2022-10-16T02:48:04;96005.75;;;9.85;72.37
52957;BME280;38819;42.692;23.342;2022-10-16T02:50:30;96006.56;;;9.85;71.65
52957;BME280;38819;42.692;23.342;2022-10-16T02:52:55;96008.19;;;9.91;71.19
52957;BME280;38819;42.692;23.342;2022-10-16T02:55:20;96014.66;;;9.85;71.36
52957;BME280;38819;42.692;23.342;2022-10-16T02:57:46;96013.28;;;9.72;71.45
52957;BME280;38819;42.692;23.342;2022-10-16T03:00:12;96022.19;;;9.73;71.72
52957;BME280;38819;42.692;23.342;2022-10-16T03:02:38;96018.13;;;9.75;71.34
52957;BME280;38819;42.692;23.342;2022-10-16T03:05:03;96016.25;;;9.71;71.44
52957;BME280;38819;42.692;23.342;2022-10-16T03:07:29;96014.91;;;9.73;71.44
52957;BME280;38819;42.692;23.342;2022-10-16T03:09:54;96017.88;;;9.72;71.24
52957;BME280;38819;42.692;23.342;2022-10-16T03:12:20;96023.25;;;9.72;71.23
52957;BME280;38819;42.692;23.342;2022-10-16T03:14:45;96024.09;;;9.72;71.29
52957;BME280;38819;42.692;23.342;2022-10-16T03:17:11;96029.19;;;9.69;71.60
52957;BME280;38819;42.692;23.342;2022-10-16T03:19:37;96033.50;;;9.70;71.60
52957;BME280;38819;42.692;23.342;2022-10-16T03:22:03;96029.44;;;9.67;71.51
52957;BME280;38819;42.692;23.342;2022-10-16T03:24:28;96028.91;;;9.65;71.98
52957;BME280;38819;42.692;23.342;2022-10-16T03:26:53;96033.50;;;9.59;72.04
52957;BME280;38819;42.692;23.342;2022-10-16T03:29:18;96036.19;;;9.54;72.39
52957;BME280;38819;42.692;23.342;2022-10-16T03:31:44;96033.47;;;9.49;72.34
52957;BME280;38819;42.692;23.342;2022-10-16T03:34:09;96029.69;;;9.60;71.82
52957;BME280;38819;42.692;23.342;2022-10-16T03:36:34;96033.50;;;9.64;71.53
52957;BME280;38819;42.692;23.342;2022-10-16T03:38:59;96031.06;;;9.68;71.43
52957;BME280;38819;42.692;23.342;2022-10-16T03:41:25;96039.44;;;9.67;71.67
52957;BME280;38819;42.692;23.342;2022-10-16T03:43:50;96030.19;;;9.47;72.27
52957;BME280;38819;42.692;23.342;2022-10-16T03:46:15;96029.69;;;9.60;71.85
52957;BME280;38819;42.692;23.342;2022-10-16T03:48:40;96032.41;;;9.60;71.52
52957;BME280;38819;42.692;23.342;2022-10-16T03:51:06;96031.56;;;9.44;72.25
52957;BME280;38819;42.692;23.342;2022-10-16T03:53:31;96027.47;;;9.37;72.47
52957;BME280;38819;42.692;23.342;2022-10-16T03:55:56;96021.31;;;9.52;71.99
52957;BME280;38819;42.692;23.342;2022-10-16T03:58:22;96026.13;;;9.34;72.30
52957;BME280;38819;42.692;23.342;2022-10-16T04:00:47;96030.94;;;9.22;72.88
52957;BME280;38819;42.692;23.342;2022-10-16T04:03:13;96031.16;;;9.15;73.17
52957;BME280;38819;42.692;23.342;2022-10-16T04:05:39;96031.19;;;9.20;72.93
52957;BME280;38819;42.692;23.342;2022-10-16T04:08:04;96030.69;;;9.28;72.72
52957;BME280;38819;42.692;23.342;2022-10-16T04:10:29;96025.84;;;9.31;72.35
52957;BME280;38819;42.692;23.342;2022-10-16T04:12:55;96027.19;;;9.33;72.21
52957;BME280;38819;42.692;23.342;2022-10-16T04:15:21;96033.13;;;9.30;72.30
52957;BME280;38819;42.692;23.342;2022-10-16T04:17:47;96032.56;;;9.28;72.35
52957;BME280;38819;42.692;23.342;2022-10-16T04:20:12;96033.59;;;9.12;72.70
52957;BME280;38819;42.692;23.342;2022-10-16T04:22:37;96034.94;;;9.09;73.01
52957;BME280;38819;42.692;23.342;2022-10-16T04:25:02;96038.16;;;9.06;73.32
52957;BME280;38819;42.692;23.342;2022-10-16T04:27:28;96041.38;;;9.03;73.37
52957;BME280;38819;42.692;23.342;2022-10-16T04:29:53;96036.22;;;9.01;73.24
52957;BME280;38819;42.692;23.342;2022-10-16T04:32:18;96048.38;;;9.04;73.25
52957;BME280;38819;42.692;23.342;2022-10-16T04:34:44;96049.00;;;9.21;72.64
52957;BME280;38819;42.692;23.342;2022-10-16T04:37:09;96043.84;;;9.15;72.62
52957;BME280;38819;42.692;23.342;2022-10-16T04:39:34;96053.59;;;9.21;72.54
52957;BME280;38819;42.692;23.342;2022-10-16T04:41:59;96051.13;;;9.14;72.60
52957;BME280;38819;42.692;23.342;2022-10-16T04:44:25;96048.66;;;9.07;72.74
52957;BME280;38819;42.692;23.342;2022-10-16T04:46:50;96053.22;;;9.07;72.77
52957;BME280;38819;42.692;23.342;2022-10-16T04:49:15;96057.56;;;9.13;72.55
52957;BME280;38819;42.692;23.342;2022-10-16T04:51:41;96057.06;;;9.16;72.45
52957;BME280;38819;42.692;23.342;2022-10-16T04:54:06;96067.88;;;9.21;72.36
52957;BME280;38819;42.692;23.342;2022-10-16T04:56:31;96069.75;;;9.21;72.13
52957;BME280;38819;42.692;23.342;2022-10-16T04:58:57;96070.00;;;9.19;72.19
52957;BME280;38819;42.692;23.342;2022-10-16T05:01:22;96072.38;;;9.05;72.81
52957;BME280;38819;42.692;23.342;2022-10-16T05:03:48;96083.91;;;8.96;73.13
52957;BME280;38819;42.692;23.342;2022-10-16T05:06:13;96083.34;;;8.94;73.03
52957;BME280;38819;42.692;23.342;2022-10-16T05:08:38;96085.00;;;9.00;72.84
52957;BME280;38819;42.692;23.342;2022-10-16T05:11:03;96077.91;;;8.88;72.92
52957;BME280;38819;42.692;23.342;2022-10-16T05:13:29;96087.94;;;8.98;72.86
52957;BME280;38819;42.692;23.342;2022-10-16T05:15:54;96088.72;;;8.94;72.90
52957;BME280;38819;42.692;23.342;2022-10-16T05:18:19;96085.78;;;8.95;73.00
52957;BME280;38819;42.692;23.342;2022-10-16T05:20:45;96086.31;;;8.92;72.92
52957;BME280;38819;42.692;23.342;2022-10-16T05:23:10;96095.47;;;8.91;73.24
52957;BME280;38819;42.692;23.342;2022-10-16T05:25:36;96096.03;;;8.98;72.89
52957;BME280;38819;42.692;23.342;2022-10-16T05:28:02;96096.88;;;8.99;73.40
52957;BME280;38819;42.692;23.342;2022-10-16T05:30:27;96094.72;;;9.01;73.23
52957;BME280;38819;42.692;23.342;2022-10-16T05:32:52;96092.56;;;9.03;73.12
52957;BME280;38819;42.692;23.342;2022-10-16T05:35:18;96086.91;;;9.04;72.82
52957;BME280;38819;42.692;23.342;2022-10-16T05:37:43;96099.63;;;9.14;72.48
52957;BME280;38819;42.692;23.342;2022-10-16T05:40:09;96104.31;;;9.29;72.18
52957;BME280;38819;42.692;23.342;2022-10-16T05:42:35;96100.84;;;9.39;71.63
52957;BME280;38819;42.692;23.342;2022-10-16T05:45:00;96103.00;;;9.47;71.33
52957;BME280;38819;42.692;23.342;2022-10-16T05:47:25;96099.78;;;9.50;71.33
52957;BME280;38819;42.692;23.342;2022-10-16T05:49:51;96100.88;;;9.44;71.42
52957;BME280;38819;42.692;23.342;2022-10-16T05:52:16;96116.22;;;9.49;71.80
52957;BME280;38819;42.692;23.342;2022-10-16T05:54:41;96115.97;;;9.50;71.81
52957;BME280;38819;42.692;23.342;2022-10-16T05:57:06;96120.81;;;9.48;72.01
52957;BME280;38819;42.692;23.342;2022-10-16T05:59:32;96118.16;;;9.53;72.02
52957;BME280;38819;42.692;23.342;2022-10-16T06:01:57;96122.47;;;9.54;71.92
52957;BME280;38819;42.692;23.342;2022-10-16T06:04:22;96128.16;;;9.58;72.08
52957;BME280;38819;42.692;23.342;2022-10-16T06:06:48;96125.47;;;9.63;71.79
52957;BME280;38819;42.692;23.342;2022-10-16T06:09:13;96140.88;;;9.68;71.57
52957;BME280;38819;42.692;23.342;2022-10-16T06:11:38;96136.53;;;9.67;71.64
52957;BME280;38819;42.692;23.342;2022-10-16T06:14:04;96139.00;;;9.73;71.24
52957;BME280;38819;42.692;23.342;2022-10-16T06:16:32;96140.88;;;9.73;71.20
52957;BME280;38819;42.692;23.342;2022-10-16T06:18:57;96137.66;;;9.76;71.27
52957;BME280;38819;42.692;23.342;2022-10-16T06:21:24;96145.78;;;9.81;71.02
52957;BME280;38819;42.692;23.342;2022-10-16T06:23:50;96147.09;;;9.78;71.19
52957;BME280;38819;42.692;23.342;2022-10-16T06:26:16;96150.41;;;9.91;70.79
52957;BME280;38819;42.692;23.342;2022-10-16T06:28:42;96145.56;;;10.03;70.49
52957;BME280;38819;42.692;23.342;2022-10-16T06:31:08;96146.38;;;10.09;70.25
52957;BME280;38819;42.692;23.342;2022-10-16T06:33:34;96147.78;;;10.22;69.97
52957;BME280;38819;42.692;23.342;2022-10-16T06:36:01;96149.94;;;10.19;70.01
52957;BME280;38819;42.692;23.342;2022-10-16T06:38:26;96151.84;;;10.19;69.84
52957;BME280;38819;42.692;23.342;2022-10-16T06:40:53;96154.28;;;10.26;69.70
52957;BME280;38819;42.692;23.342;2022-10-16T06:43:18;96162.91;;;10.28;69.61
52957;BME280;38819;42.692;23.342;2022-10-16T06:45:43;96159.69;;;10.31;69.52
52957;BME280;38819;42.692;23.342;2022-10-16T06:48:14;96163.50;;;10.35;69.17
52957;BME280;38819;42.692;23.342;2022-10-16T06:50:40;96171.06;;;10.33;69.11
52957;BME280;38819;42.692;23.342;2022-10-16T06:53:05;96171.59;;;10.45;69.01
52957;BME280;38819;42.692;23.342;2022-10-16T06:55:30;96175.38;;;10.39;69.39
52957;BME280;38819;42.692;23.342;2022-10-16T06:57:55;96181.88;;;10.38;69.85
52957;BME280;38819;42.692;23.342;2022-10-16T07:00:21;96183.19;;;10.35;69.83
52957;BME280;38819;42.692;23.342;2022-10-16T07:02:46;96181.34;;;10.41;69.66
52957;BME280;38819;42.692;23.342;2022-10-16T07:05:11;96184.84;;;10.47;69.44
52957;BME280;38819;42.692;23.342;2022-10-16T07:07:37;96182.69;;;10.49;69.65
52957;BME280;38819;42.692;23.342;2022-10-16T07:10:02;96184.84;;;10.47;69.52
52957;BME280;38819;42.692;23.342;2022-10-16T07:12:27;96184.84;;;10.47;69.39
52957;BME280;38819;42.692;23.342;2022-10-16T07:14:52;96189.72;;;10.50;69.43
52957;BME280;38819;42.692;23.342;2022-10-16T07:17:19;96191.88;;;10.58;69.22
52957;BME280;38819;42.692;23.342;2022-10-16T07:19:45;96196.22;;;10.64;69.16
52957;BME280;38819;42.692;23.342;2022-10-16T07:22:10;96195.13;;;10.81;68.93
52957;BME280;38819;42.692;23.342;2022-10-16T07:24:35;96191.91;;;10.89;68.26
52957;BME280;38819;42.692;23.342;2022-10-16T07:27:01;96192.47;;;10.91;68.68
52957;BME280;38819;42.692;23.342;2022-10-16T07:29:26;96196.75;;;10.87;68.43
52957;BME280;38819;42.692;23.342;2022-10-16T07:31:51;96192.44;;;10.86;68.85
52957;BME280;38819;42.692;23.342;2022-10-16T07:34:17;96201.63;;;10.90;68.47
52957;BME280;38819;42.692;23.342;2022-10-16T07:36:43;96191.09;;;10.93;68.67
52957;BME280;38819;42.692;23.342;2022-10-16T07:39:08;96186.50;;;11.04;68.68
52957;BME280;38819;42.692;23.342;2022-10-16T07:41:34;96188.91;;;11.21;67.97
52957;BME280;38819;42.692;23.342;2022-10-16T07:44:02;96184.56;;;11.36;67.62
52957;BME280;38819;42.692;23.342;2022-10-16T07:46:27;96189.69;;;11.32;67.35
52957;BME280;38819;42.692;23.342;2022-10-16T07:48:53;96195.09;;;11.32;67.19
52957;BME280;38819;42.692;23.342;2022-10-16T07:51:19;96197.28;;;11.30;67.75
52957;BME280;38819;42.692;23.342;2022-10-16T07:53:45;96192.94;;;11.29;67.87
52957;BME280;38819;42.692;23.342;2022-10-16T07:56:11;96192.69;;;11.15;68.31
52957;BME280;38819;42.692;23.342;2022-10-16T07:58:36;96198.34;;;11.29;67.88
52957;BME280;38819;42.692;23.342;2022-10-16T08:01:09;96200.50;;;11.37;67.87
52957;BME280;38819;42.692;23.342;2022-10-16T08:03:34;96199.69;;;11.47;67.66
52957;BME280;38819;42.692;23.342;2022-10-16T08:05:59;96204.56;;;11.50;67.50
52957;BME280;38819;42.692;23.342;2022-10-16T08:08:25;96205.09;;;11.47;67.31
52957;BME280;38819;42.692;23.342;2022-10-16T08:10:50;96198.34;;;11.44;67.69
52957;BME280;38819;42.692;23.342;2022-10-16T08:13:16;96205.31;;;11.61;67.38
52957;BME280;38819;42.692;23.342;2022-10-16T08:15:42;96196.59;;;11.79;67.08
52957;BME280;38819;42.692;23.342;2022-10-16T08:18:09;96196.59;;;11.95;66.67
52957;BME280;38819;42.692;23.342;2022-10-16T08:20:34;96196.25;;;12.12;66.10
52957;BME280;38819;42.692;23.342;2022-10-16T08:23:00;96191.91;;;12.11;66.02
52957;BME280;38819;42.692;23.342;2022-10-16T08:25:26;96197.56;;;12.19;66.16
52957;BME280;38819;42.692;23.342;2022-10-16T08:27:51;96196.44;;;12.31;65.73
52957;BME280;38819;42.692;23.342;2022-10-16T08:30:17;96195.59;;;12.35;65.70
52957;BME280;38819;42.692;23.342;2022-10-16T08:32:43;96184.94;;;12.49;65.22
52957;BME280;38819;42.692;23.342;2022-10-16T08:35:12;96186.31;;;12.47;64.99
52957;BME280;38819;42.692;23.342;2022-10-16T08:37:38;96191.75;;;12.47;64.75
52957;BME280;38819;42.692;23.342;2022-10-16T08:40:05;96184.91;;;12.54;63.73
52957;BME280;38819;42.692;23.342;2022-10-16T08:50:27;96189.84;;;12.87;62.15
52957;BME280;38819;42.692;23.342;2022-10-16T08:52:53;96185.97;;;12.98;61.82
52957;BME280;38819;42.692;23.342;2022-10-16T08:57:50;96189.19;;;13.00;59.34
52957;BME280;38819;42.692;23.342;2022-10-16T09:00:15;96198.28;;;13.14;58.92
52957;BME280;38819;42.692;23.342;2022-10-16T09:13:51;96181.31;;;13.62;57.01
52957;BME280;38819;42.692;23.342;2022-10-16T09:21:43;96177.16;;;13.70;54.90
52957;BME280;38819;42.692;23.342;2022-10-16T09:24:16;96177.16;;;13.70;54.38
52957;BME280;38819;42.692;23.342;2022-10-16T09:26:42;96184.41;;;13.75;54.90
52957;BME280;38819;42.692;23.342;2022-10-16T09:29:10;96183.78;;;13.83;55.36
52957;BME280;38819;42.692;23.342;2022-10-16T09:31:36;96183.72;;;13.88;54.80
52957;BME280;38819;42.692;23.342;2022-10-16T09:34:02;96181.34;;;14.05;54.72
52957;BME280;38819;42.692;23.342;2022-10-16T09:36:41;96187.66;;;14.20;54.74
52957;BME280;38819;42.692;23.342;2022-10-16T09:39:08;96178.56;;;14.30;54.46
52957;BME280;38819;42.692;23.342;2022-10-16T09:41:34;96175.97;;;14.43;54.85
52957;BME280;38819;42.692;23.342;2022-10-16T09:44:01;96174.47;;;14.51;54.80
52957;BME280;38819;42.692;23.342;2022-10-16T09:46:31;96176.69;;;14.68;54.32
52957;BME280;38819;42.692;23.342;2022-10-16T09:48:58;96165.25;;;14.71;53.95
52957;BME280;38819;42.692;23.342;2022-10-16T09:51:25;96169.09;;;14.70;53.16
52957;BME280;38819;42.692;23.342;2022-10-16T09:53:54;96168.09;;;14.80;53.37
52957;BME280;38819;42.692;23.342;2022-10-16T09:56:24;96172.81;;;14.74;52.14
52957;BME280;38819;42.692;23.342;2022-10-16T09:58:53;96157.59;;;14.73;51.97
52957;BME280;38819;42.692;23.342;2022-10-16T10:01:19;96158.22;;;14.70;51.93
52957;BME280;38819;42.692;23.342;2022-10-16T10:03:45;96165.25;;;14.71;52.24
52957;BME280;38819;42.692;23.342;2022-10-16T10:08:55;96162.31;;;14.68;52.91
52957;BME280;38819;42.692;23.342;2022-10-16T10:14:06;96155.81;;;14.82;52.93
52957;BME280;38819;42.692;23.342;2022-10-16T10:16:38;96154.50;;;14.80;52.54
52957;BME280;38819;42.692;23.342;2022-10-16T10:19:03;96146.13;;;14.76;51.47
52957;BME280;38819;42.692;23.342;2022-10-16T10:21:29;96153.91;;;14.83;52.30
52957;BME280;38819;42.692;23.342;2022-10-16T10:23:57;96154.72;;;14.84;52.38
52957;BME280;38819;42.692;23.342;2022-10-16T10:26:24;96147.59;;;14.88;52.35
52957;BME280;38819;42.692;23.342;2022-10-16T10:28:54;96152.81;;;14.84;52.08
52957;BME280;38819;42.692;23.342;2022-10-16T10:34:26;96147.69;;;14.96;51.88
52957;BME280;38819;42.692;23.342;2022-10-16T10:36:40;96130.69;;;15.05;52.44
52957;BME280;38819;42.692;23.342;2022-10-16T10:51:43;96123.78;;;15.26;50.45
52957;BME280;38819;42.692;23.342;2022-10-16T10:54:13;96127.94;;;15.24;49.80
52957;BME280;38819;42.692;23.342;2022-10-16T11:01:50;96116.03;;;15.33;48.06
52957;BME280;38819;42.692;23.342;2022-10-16T11:07:04;96111.81;;;15.55;47.74
52957;BME280;38819;42.692;23.342;2022-10-16T11:12:28;96108.59;;;15.67;49.52
52957;BME280;38819;42.692;23.342;2022-10-16T11:17:38;96108.72;;;15.76;47.66
52957;BME280;38819;42.692;23.342;2022-10-16T11:20:16;96103.06;;;15.86;48.00
52957;BME280;38819;42.692;23.342;2022-10-16T11:22:44;96100.75;;;15.79;47.26
52957;BME280;38819;42.692;23.342;2022-10-16T11:30:13;96096.59;;;15.82;48.49
52957;BME280;38819;42.692;23.342;2022-10-16T11:32:47;96093.06;;;15.95;48.40
52957;BME280;38819;42.692;23.342;2022-10-16T11:35:19;96087.91;;;15.93;47.35
52957;BME280;38819;42.692;23.342;2022-10-16T11:37:47;96091.66;;;15.98;46.73
52957;BME280;38819;42.692;23.342;2022-10-16T11:40:31;96094.06;;;15.99;47.07
52957;BME280;38819;42.692;23.342;2022-10-16T11:43:01;96094.75;;;16.05;47.18
52957;BME280;38819;42.692;23.342;2022-10-16T11:48:37;96097.25;;;16.15;47.30
52957;BME280;38819;42.692;23.342;2022-10-16T11:51:07;96097.97;;;16.21;46.37
52957;BME280;38819;42.692;23.342;2022-10-16T11:56:04;96087.13;;;16.29;47.43
52957;BME280;38819;42.692;23.342;2022-10-16T12:08:48;96084.41;;;16.52;46.88
52957;BME280;38819;42.692;23.342;2022-10-16T12:11:22;96086.16;;;16.48;46.69
52957;BME280;38819;42.692;23.342;2022-10-16T12:13:48;96088.88;;;16.48;46.35
52957;BME280;38819;42.692;23.342;2022-10-16T12:18:40;96083.31;;;16.53;46.30
52957;BME280;38819;42.692;23.342;2022-10-16T12:21:06;96084.63;;;16.56;46.67
52957;BME280;38819;42.692;23.342;2022-10-16T12:23:32;96087.75;;;16.72;46.72
52957;BME280;38819;42.692;23.342;2022-10-16T12:25:59;96080.19;;;16.68;46.05
52957;BME280;38819;42.692;23.342;2022-10-16T12:28:29;96078.78;;;16.71;46.21
52957;BME280;38819;42.692;23.342;2022-10-16T12:30:56;96082.88;;;16.82;46.25
52957;BME280;38819;42.692;23.342;2022-10-16T12:33:32;96084.25;;;16.94;46.36
52957;BME280;38819;42.692;23.342;2022-10-16T12:35:58;96083.09;;;16.86;46.07
52957;BME280;38819;42.692;23.342;2022-10-16T12:38:28;96088.94;;;17.02;45.99
52957;BME280;38819;42.692;23.342;2022-10-16T12:41:00;96081.91;;;17.01;45.05
52957;BME280;38819;42.692;23.342;2022-10-16T12:46:00;96079.34;;;17.04;45.40
52957;BME280;38819;42.692;23.342;2022-10-16T12:48:26;96082.25;;;17.08;45.52
52957;BME280;38819;42.692;23.342;2022-10-16T12:50:52;96082.59;;;17.15;45.29
52957;BME280;38819;42.692;23.342;2022-10-16T12:53:18;96087.41;;;17.10;45.05
52957;BME280;38819;42.692;23.342;2022-10-16T12:56:09;96086.22;;;17.02;45.04
52957;BME280;38819;42.692;23.342;2022-10-16T12:58:37;96088.69;;;17.12;44.36
52957;BME280;38819;42.692;23.342;2022-10-16T13:01:27;96091.09;;;17.14;44.14
52957;BME280;38819;42.692;23.342;2022-10-16T13:29:04;96099.56;;;17.35;42.98
52957;BME280;38819;42.692;23.342;2022-10-16T13:31:29;96091.53;;;17.38;42.36
52957;BME280;38819;42.692;23.342;2022-10-16T13:33:56;96093.00;;;17.36;42.67
52957;BME280;38819;42.692;23.342;2022-10-16T13:38:57;96096.63;;;17.22;42.12
52957;BME280;38819;42.692;23.342;2022-10-16T13:41:25;96099.56;;;17.35;41.91
52957;BME280;38819;42.692;23.342;2022-10-16T13:43:50;96099.09;;;17.41;41.15
52957;BME280;38819;42.692;23.342;2022-10-16T13:46:18;96102.59;;;17.33;40.18
52957;BME280;38819;42.692;23.342;2022-10-16T13:48:43;96093.78;;;17.36;39.29
52957;BME280;38819;42.692;23.342;2022-10-16T13:51:13;96104.72;;;17.36;39.98
52957;BME280;38819;42.692;23.342;2022-10-16T13:53:39;96099.06;;;17.33;39.84
52957;BME280;38819;42.692;23.342;2022-10-16T13:56:06;96107.88;;;17.30;39.38
52957;BME280;38819;42.692;23.342;2022-10-16T13:58:32;96105.13;;;17.21;39.49
52957;BME280;38819;42.692;23.342;2022-10-16T14:01:02;96110.13;;;17.28;39.39
52957;BME280;38819;42.692;23.342;2022-10-16T14:03:28;96114.28;;;17.25;39.43
52957;BME280;38819;42.692;23.342;2022-10-16T14:05:59;96114.28;;;17.25;39.38
52957;BME280;38819;42.692;23.342;2022-10-16T14:08:25;96114.16;;;17.30;39.10
52957;BME280;38819;42.692;23.342;2022-10-16T14:10:56;96113.00;;;17.22;39.22
52957;BME280;38819;42.692;23.342;2022-10-16T14:13:26;96119.41;;;17.18;39.28
52957;BME280;38819;42.692;23.342;2022-10-16T14:15:53;96124.84;;;17.18;38.86
52957;BME280;38819;42.692;23.342;2022-10-16T14:18:21;96124.69;;;17.14;39.35
52957;BME280;38819;42.692;23.342;2022-10-16T14:20:48;96125.13;;;17.08;38.61
52957;BME280;38819;42.692;23.342;2022-10-16T14:23:21;96117.56;;;17.04;38.80
52957;BME280;38819;42.692;23.342;2022-10-16T14:25:47;96119.47;;;17.04;39.32
52957;BME280;38819;42.692;23.342;2022-10-16T14:28:16;96125.25;;;17.02;39.63
52957;BME280;38819;42.692;23.342;2022-10-16T14:33:34;96124.59;;;17.06;39.88
52957;BME280;38819;42.692;23.342;2022-10-16T14:36:03;96131.69;;;17.07;40.05
52957;BME280;38819;42.692;23.342;2022-10-16T14:38:30;96127.16;;;17.02;39.83
52957;BME280;38819;42.692;23.342;2022-10-16T14:40:56;96131.28;;;16.91;40.26
52957;BME280;38819;42.692;23.342;2022-10-16T14:43:23;96131.69;;;16.84;40.00
52957;BME280;38819;42.692;23.342;2022-10-16T14:45:53;96137.97;;;16.84;40.27
52957;BME280;38819;42.692;23.342;2022-10-16T14:48:19;96137.97;;;16.84;40.23
52957;BME280;38819;42.692;23.342;2022-10-16T14:50:45;96133.22;;;16.76;40.40
52957;BME280;38819;42.692;23.342;2022-10-16T14:53:11;96148.47;;;16.77;40.55
52957;BME280;38819;42.692;23.342;2022-10-16T14:55:37;96153.84;;;16.68;40.74
52957;BME280;38819;42.692;23.342;2022-10-16T14:58:02;96147.97;;;16.53;40.80
52957;BME280;38819;42.692;23.342;2022-10-16T15:00:28;96148.06;;;16.47;41.34